METAR és
SPECI
METAR LHBP 010430Z VRB01KT 0100 R13L/0200N R31R/P1500N FZFG VV001 M02/M02 Q1027 NOSIG=
METAR LHBP 010400Z 00000KT 0100 R13L/0325N R31R/1300N FZFG VV001 M02/M02 Q1027 NOSIG=
METAR LHBP 010330Z 00000KT 0100 R13L/0450N R31R/0100N FZFG VV001 M02/M02 Q1027 NOSIG=
METAR LHBP 010300Z 00000KT 0200 R13L/0150N R31R/0800N FZFG VV001 M02/M02 Q1027 NOSIG=
METAR LHBP 010230Z 00000KT 0400 R13L/P1500N R31R/0175N FZFG OVC002 M01/M02 Q1027 NOSIG=
METAR LHBP 010200Z VRB02KT 0400 R13L/1500N R31R/P1500N FZFG OVC001 M01/M01 Q1027 NOSIG=
TAF
TAF LHBP 312300Z 0100/0124 VRB03KT 1500 BCFG BR NSC TEMPO 0100/0108 0500 FG FZFG SCT001 PROB30 TEMPO 0100/0107 0150 FG FZFG VV001 BECMG 0108/0111 23005KT 8000 NSW SCT023 SCT220 BECMG 0112/0115 NSC BECMG 0114/0117 VRB03KT 5000 BR BECMG 0119/0122 1500 BCFG BR TEMPO 0122/0124 0800 FG SCT001=
GAMET
FAHU41 LHBM 010500
LHCC GAMET VALID 010600/011200 LHBP-
BUDAPEST FIR BLW FL100
SECN 1
SFC VIS: 06/10 200-5000 M IN FG BR
10/12 3000-5000 M IN BR HZ E OF E01700 AND W OF E02000
SIG CLD: 06/10 BKN/OVC 100-500/1500 FT AGL
W OF LINE N4748 E01851 - LHBP - LHUD
SIGMETS APPLICABLE: NIL=
OMSZ: 2014. november 1. 05:46 (04:46  UTC)
[FAHU41]
AIRMET
Nincs érvényes távirat! 
WAHU41 LHBM 310815
LHCC AIRMET 01 VALID 310815/311100 LHBP-
LHCC BUDAPEST FIR BKN CLD 100-300/500-1000 FT AGL E OF
E02210 AND BKN CLD 100-300/500-800 FT AGL WI N4714 E02151 -
N4650 E02030 - N4712 E01931 - N4710 E01900 - N4630 E01930 -
N4609 E02042 STNR WKN=
SIGMET
Nincs érvényes távirat! 
WSHU31 LHBM 241840
LHCC SIGMET 01 VALID 241840/242140 LHBP-
LHCC BUDAPEST FIR SEV ICE FCST W OF LINE N4557 E01730 -
N4831 E02117 6000FT/FL100 MOV NW WKN=
SIGMET
Vulkáni hamufelhő
Not valid product! 
WVHU31 LHBM 271515 CCA
LHCC SIGMET 03 VALID 271515/271800 LHBP-
LHCC BUDAPEST FIR EXERCISE VOLCEX12/01
CNL VA SIGMET 02 271200/271800
EXERCISE EXERCISE EXERCISE VOLCEX12/01=